NCAR-RAP Real-Time Weather Data

Output produced by METARs form (23 January 2018  15:50 UTC)
found at http://weather.rap.ucar.edu/surface/
 
RJEC 231100Z 18009KT 9999 -SHSN FEW010 SCT025 BKN040 M03/M07 Q0992
RJEC 231000Z 19008KT 9999 -SHSN FEW010 SCT020 BKN030 M04/M05 Q0992
RJEC 230900Z 17007KT 130V190 9999 -SHSN FEW010 SCT020 BKN030 M03/M06 Q0992
RJEC 230849Z 18008KT 150V210 9999 -SHSN FEW010 SCT020 BKN030 M03/M06 Q0992 RMK 1ST010 3CU020 7CU030 A2931
RJEC 230800Z 15018KT 9999 -SHSN FEW010 SCT020 BKN030 M02/M07 Q0993
RJEC 230700Z 19009KT 150V230 9999 VCSH FEW015 SCT025 BKN050 M02/M08 Q0993
RJEC 230627Z 16015G26KT 9999 FEW020 SCT080 BKN110 M01/M08 Q0992 RMK 1CU020 3AC080 6AC110 A2931
RJEC 230600Z 15016KT 9999 FEW020 SCT080 BKN120 M01/M09 Q0992
RJEC 230534Z 10011KT 030V150 9999 FEW020 SCT110 BKN140 M04/M11 Q0993 RMK 1CU020 3AC110 5AC140 A2932
RJEC 230517Z 17014KT 150V230 9999 FEW020 SCT110 BKN140 M04/M08 Q0992 RMK 1CU020 3AC110 5AC140 A2932
RJEC 230500Z VRB03KT 9999 FEW020 SCT110 BKN180 M08/M12 Q0993
RJEC 230400Z 04004KT 340V090 9999 FEW025 SCT180 BKN/// M08/M12 Q0993
RJEC 230300Z VRB02KT 9999 FEW030 SCT100 M11/M14 Q0996
RJEC 230200Z 28003KT 240V320 9999 FEW030 SCT120 BKN/// M12/M15 Q0998
RJEC 230100Z 32003KT 9999 FEW015 SCT100 BKN150 M13/M14 Q1000
RJEC 230000Z VRB02KT 9999 FEW015 SCT025 BKN100 M14/M15 Q1003
RJEC 222300Z VRB01KT 9999 FEW020 SCT080 BKN/// M16/M17 Q1004
RJEC 222200Z VRB02KT 9999 FEW010 SCT080 M16/M18 Q1006
RJEC 222140Z VRB02KT 9999 FEW008 SCT020 BKN080 M16/M18 Q1006 RMK 1ST008 3CU020 5AC080 A2972
RJEC 221100Z 16006KT 9999 FEW010 SCT060 BKN/// M14/M17 Q1017
RJEC 221000Z 20008KT 9999 FEW010 SCT060 BKN070 M08/M14 Q1016
RJEC 220900Z 18010KT 9999 FEW010 SCT020 BKN050 M08/M11 Q1016
RJEC 220800Z 18010KT 7000 -SHSN FEW005 SCT015 BKN025 M08/M10 Q1016
RJEC 220727Z 17010KT 5000 -SHSN FEW005 SCT015 BKN030 M08/M10 Q1016 RMK 1ST005 3ST015 6CU030 A3001
RJEC 220700Z 17012KT 3200 -SHSN FEW005 SCT015 BKN025 M08/M10 Q1016
RJEC 220638Z 16010KT 3100 -SHSN FEW005 SCT015 BKN025 M08/M10 Q1016 RMK 1ST005 3ST015 6CU025 A3002
RJEC 220619Z 16009KT 4900 -SHSN FEW005 SCT015 BKN030 M08/M10 Q1016 RMK 1ST005 3ST015 6CU030 A3002
RJEC 220600Z 16008KT 5000 -SHSN FEW005 SCT018 BKN030 M08/M10 Q1016
RJEC 220500Z 19008KT 5000 -SHSN FEW005 SCT018 BKN030 M08/M10 Q1016
RJEC 220400Z 17010KT 4500 -SHSN FEW005 SCT018 BKN025 M08/M11 Q1016
RJEC 220337Z 18009KT 4900 -SHSN FEW005 SCT018 BKN025 M08/M10 Q1016 RMK 1ST005 3ST018 5CU025 A3002
RJEC 220300Z 19007KT 150V250 9999 -SHSN FEW008 SCT025 BKN/// M07/M11 Q1016
RJEC 220248Z 18007KT 5000 -SHSN FEW005 SCT018 BKN025 M08/M11 Q1017 RMK 1ST005 3ST018 6CU025 A3003
RJEC 220246Z 18007KT 3200 -SHSN FEW005 SCT015 BKN020 M08/M11 Q1017 RMK 1ST005 3ST015 6CU020 A3003
RJEC 220243Z 18008KT 2400 -SHSN FEW005 SCT012 BKN018 M08/M11 Q1017 RMK 1ST005 3ST012 6ST018 A3003
RJEC 220231Z 17010KT 2300 R34/2000N -SHSN FEW003 SCT010 BKN015 M08/M11 Q1017 RMK 1ST003 3ST010 6ST015 A3003
RJEC 220225Z 17011KT 3100 -SHSN FEW003 SCT012 BKN018 M08/M11 Q1017 RMK 1ST003 3ST012 6ST018 A3003
RJEC 220213Z 17011KT 4900 -SHSN FEW005 SCT015 BKN020 M08/M11 Q1017 RMK 1ST005 3ST015 6CU020 A3003
RJEC 220200Z 16011KT 6000 -SHSN FEW008 SCT018 BKN025 M08/M11 Q1017
RJEC 220134Z 16012KT 3200 -SHSN FEW008 SCT015 BKN020 M09/M11 Q1017 RMK 1ST008 3ST015 6CU020 A3004
RJEC 220100Z 16011KT 3000 R34/2000N -SHSN FEW006 SCT012 BKN018 M09/M12 Q1017
RJEC 220046Z 16011KT 2400 R34/1600VP2000U -SHSN FEW006 SCT012 BKN018 M09/M12 Q1017 RMK 1ST006 3ST012 6ST018 A3004
RJEC 220012Z 16010KT 2300 R34/1900D -SHSN FEW005 SCT010 BKN015 M10/M12 Q1017 RMK 1ST005 3ST010 6ST015 A3004
RJEC 220000Z 16010KT 2500 -SHSN FEW005 SCT010 BKN015 M10/M12 Q1017
RJEC 212338Z 16010KT 2400 R34/1400VP2000U -SHSN FEW005 SCT010 BKN015 M10/M12 Q1017 RMK 2ST005 4ST010 7ST015 A3004
RJEC 212324Z 15011KT 1600 R34/1400VP2000U -SHSN FEW003 SCT008 BKN012 M10/M12 Q1017 RMK 2ST003 4ST008 7ST012 A3004
RJEC 212321Z 15011KT 1500 R34/1100VP2000U -SHSN FEW003 SCT008 BKN012 M10/M12 Q1017 RMK 2ST003 4ST008 7ST012 A3004
RJEC 212316Z 15010KT 1000 R34/1300N -SHSN FEW003 SCT008 BKN012 M10/M12 Q1017 RMK 2ST003 4ST008 7ST012 A3004
RJEC 212300Z 16009KT 0900 R34/0800V1800D SHSN VV008 M10/M12 Q1017
RJEC 212239Z 19007KT 2300 R34/2000N -SHSN FEW005 SCT010 BKN015 M11/M12 Q1016 RMK 1ST005 3ST010 6ST015 A3003
RJEC 212230Z 17010KT 3100 R34/2000N -SHSN FEW005 SCT015 BKN020 M11/M13 Q1016 RMK 1ST005 4ST015 6CU020 A3002
RJEC 212225Z 17010KT 4900 -SHSN FEW005 SCT015 BKN020 M11/M13 Q1016 RMK 1ST005 3ST015 6CU020 A3002
RJEC 212200Z 17008KT 9999 -SHSN FEW008 SCT015 BKN020 M12/M14 Q1016
RJEC 212140Z 18009KT 9999 -SHSN FEW010 SCT015 BKN020 M12/M14 Q1016 RMK 1ST010 3ST015 5CU020 A3001
RJEC 211100Z 20007KT 170V230 8000 -SHSN FEW005 SCT015 BKN030 M12/M17 Q1013
RJEC 211019Z 16004KT 120V210 5000 -SHSN FEW005 SCT012 BKN020 M14/M17 Q1012 RMK 1ST005 3ST012 6CU020 A2991
RJEC 211005Z VRB02KT 4900 -SHSN FEW005 SCT010 BKN018 M12/M14 Q1012 RMK 1ST005 3ST010 7ST018 A2990
RJEC 211000Z VRB01KT 5000 -SHSN FEW005 SCT010 BKN020 M12/M14 Q1012
RJEC 210900Z 28011KT 5000 -SHSN FEW005 SCT010 BKN020 M11/M15 Q1011
RJEC 210849Z 30011KT 2400 -SHSN FEW003 SCT008 BKN012 M11/M13 Q1011 RMK 1ST003 3ST008 6ST012 A2987
RJEC 210844Z 30011KT 1600 -SHSN FEW003 SCT008 BKN012 M11/M13 Q1011 RMK 2ST003 4ST008 7ST012 A2987
RJEC 210842Z 30012KT 1500 R34/1100VP2000U -SHSN FEW003 SCT008 BKN012 M11/M13 Q1011 RMK 2ST003 4ST008 7ST012 A2987
RJEC 210830Z 30014KT 1400 R34/0800VP2000N -SHSN FEW003 SCT008 BKN012 M11/M13 Q1011 RMK 2ST003 4ST008 7ST012 A2986
RJEC 210823Z 31013KT 1500 R34/0800VP2000D -SHSN FEW003 SCT008 BKN012 M11/M13 Q1011 RMK 2ST003 4ST008 7ST012 A2986
RJEC 210816Z 31009KT 2300 -SHSN FEW003 SCT012 BKN020 M11/M13 Q1011 RMK 1ST003 3ST012 6CU020 A2985
RJEC 210800Z 25013KT 3000 R34/1500VP2000N -SHSN FEW003 SCT012 BKN020 M10/M13 Q1010
RJEC 210735Z 26014KT 2400 -SHSN FEW003 SCT012 BKN020 M10/M14 Q1010 RMK 1ST003 3ST012 6CU020 A2983
RJEC 210706Z 26017KT 1600 R34/1100VP2000U -SHSN BLSN FEW003 SCT008 BKN012 M10/M13 Q1009 RMK 2ST003 4ST008 7ST012 A2982
RJEC 210700Z 26016G26KT 1500 R34/1100VP2000N -SHSN BLSN FEW003 SCT008 BKN012 M10/M13 Q1009
RJEC 210642Z 27019KT 0900 R34/0600VP2000D SHSN BLSN VV008 M10/M13 Q1009 RMK A2980
RJEC 210640Z 27018KT 1500 R34/0600VP2000D -SHSN BLSN FEW003 SCT008 BKN012 M10/M13 Q1009 RMK 2ST003 4ST008 7ST012 A2980
RJEC 210639Z 27017KT 2300 R34/0600VP2000D -SHSN BLSN FEW005 SCT012 BKN020 M10/M14 Q1009 RMK 1ST005 3ST012 6CU020 A2980
RJEC 210637Z 27016KT 4900 R34/2000N -SHSN FEW005 SCT012 BKN020 M09/M14 Q1009 RMK 1ST005 3ST012 6CU020 A2980
RJEC 210608Z 26015KT 5000 -SHSN FEW005 SCT015 BKN025 M09/M13 Q1008 RMK 1ST005 3ST015 6CU025 A2979
RJEC 210603Z 26014KT 3200 -SHSN FEW003 SCT010 BKN015 M09/M13 Q1008 RMK 1ST003 3ST010 6ST015 A2979
RJEC 210600Z 26014KT 2400 R34/1500VP2000N -SHSN FEW003 SCT008 BKN012 M09/M13 Q1008
RJEC 210546Z 25017KT 1400 R34/0650V1800D -SHSN BLSN FEW003 BKN008 BKN012 M09/M12 Q1008 RMK 2ST003 5ST008 7ST012 A2979
RJEC 210534Z 26013KT 1500 R34/1000VP2000D -SHSN FEW003 SCT008 BKN012 M09/M11 Q1008 RMK 2ST003 4ST008 7ST012 A2978
RJEC 210500Z 25014KT 2000 R34/0800VP2000U -SHSN FEW003 SCT008 BKN012 M08/M11 Q1008
RJEC 210412Z 25011KT 5000 -SHSN FEW005 SCT015 BKN025 M08/M12 Q1008 RMK 1ST005 3ST015 6CU025 A2978
RJEC 210408Z 25012KT 3200 R34/1600VP2000U -SHSN FEW005 SCT010 BKN025 M08/M12 Q1008 RMK 1ST005 3ST010 6CU025 A2978
RJEC 210404Z 25013G23KT 210V280 2400 R34/0700VP2000U -SHSN FEW003 SCT008 BKN012 M08/M12 Q1008 RMK 1ST003 3ST008 6ST012 A2978
RJEC 210400Z 25011G23KT 210V280 1600 R34/0700VP2000U -SHSN FEW003 SCT008 BKN012 M08/M12 Q1008